createdAt,value
2023-01-05T00:01:53.946Z,32.08
2023-01-05T00:04:20.779Z,33.63
2023-01-05T00:06:47.640Z,40.13
2023-01-05T00:09:17.205Z,30.63
2023-01-05T00:12:02.474Z,26.35
2023-01-05T00:14:50.875Z,31.85
2023-01-05T00:17:41.585Z,43.15
2023-01-05T00:20:33.506Z,33.72
2023-01-05T00:23:00.510Z,38.50
2023-01-05T00:25:29.456Z,33.03
2023-01-05T00:27:58.053Z,37.97
2023-01-05T00:30:31.839Z,36.70
2023-01-05T00:32:58.616Z,36.80
2023-01-05T00:35:25.322Z,36.15
2023-01-05T00:37:52.257Z,33.83
2023-01-05T00:40:21.630Z,32.00
2023-01-05T00:42:48.786Z,33.88
2023-01-05T00:45:17.639Z,28.02
2023-01-05T00:47:44.967Z,33.50
2023-01-05T00:50:15.387Z,31.38
2023-01-05T00:52:42.634Z,30.98
2023-01-05T00:55:09.697Z,32.75
2023-01-05T00:57:36.966Z,26.75
2023-01-05T01:00:11.210Z,30.67
2023-01-05T01:02:37.805Z,39.85
2023-01-05T01:05:05.483Z,32.78
2023-01-05T01:07:32.367Z,30.23
2023-01-05T01:09:59.014Z,35.67
2023-01-05T01:12:25.851Z,30.15
2023-01-05T01:14:52.516Z,25.45
2023-01-05T01:17:19.299Z,28.58
2023-01-05T01:19:46.834Z,31.08
2023-01-05T01:22:14.639Z,36.95
2023-01-05T01:24:41.271Z,30.52
2023-01-05T01:27:08.038Z,28.35
2023-01-05T01:29:40.952Z,25.98
2023-01-05T01:32:07.599Z,35.90
2023-01-05T01:34:34.366Z,31.40
2023-01-05T01:39:35.488Z,28.52
2023-01-05T01:42:11.885Z,26.52
2023-01-05T01:44:47.865Z,34.80
2023-01-05T01:47:20.880Z,28.27
2023-01-05T01:49:48.603Z,27.92
2023-01-05T01:52:15.959Z,29.02
2023-01-05T01:54:42.808Z,30.08
2023-01-05T01:57:11.738Z,33.30
2023-01-05T01:59:38.764Z,29.40
2023-01-05T02:02:07.953Z,30.73
2023-01-05T02:04:37.393Z,27.85
2023-01-05T02:07:04.766Z,28.67
2023-01-05T02:09:31.866Z,32.17
2023-01-05T02:12:10.105Z,33.17
2023-01-05T02:15:00.149Z,40.05
2023-01-05T02:17:38.947Z,26.70
2023-01-05T02:20:25.524Z,36.92
2023-01-05T02:23:32.365Z,31.00
2023-01-05T02:26:28.533Z,32.85
2023-01-05T02:29:28.964Z,38.53
2023-01-05T02:32:09.932Z,36.05
2023-01-05T02:35:00.026Z,34.50
2023-01-05T02:37:41.547Z,36.85
2023-01-05T02:40:12.137Z,30.50
2023-01-05T02:42:41.332Z,31.55
2023-01-05T02:45:09.139Z,34.95
2023-01-05T02:47:40.840Z,34.33
2023-01-05T02:50:12.558Z,29.13
2023-01-05T02:52:45.721Z,23.60
2023-01-05T02:55:20.396Z,34.00
2023-01-05T02:57:59.781Z,33.42
2023-01-05T03:00:38.994Z,30.70
2023-01-05T03:03:14.839Z,33.00
2023-01-05T03:05:52.366Z,26.88
2023-01-05T03:08:32.703Z,33.60
2023-01-05T03:11:26.130Z,33.90
2023-01-05T03:14:03.757Z,31.50
2023-01-05T03:16:35.899Z,32.85
2023-01-05T03:19:27.230Z,30.88
2023-01-05T03:22:13.875Z,32.47
2023-01-05T03:25:02.994Z,25.60
2023-01-05T03:27:51.158Z,33.58
2023-01-05T03:30:44.532Z,30.52
2023-01-05T03:33:39.433Z,35.20
2023-01-05T03:36:08.997Z,34.78
2023-01-05T03:38:43.917Z,38.17
2023-01-05T03:41:16.431Z,31.88
2023-01-05T03:43:47.795Z,34.95
2023-01-05T03:46:19.106Z,32.30
2023-01-05T03:48:46.409Z,43.05
2023-01-05T03:51:15.747Z,26.50
2023-01-05T03:53:42.640Z,36.88
2023-01-05T03:56:09.248Z,29.65
2023-01-05T03:58:35.943Z,33.47
2023-01-05T04:01:02.606Z,31.35
2023-01-05T04:03:32.096Z,31.42
2023-01-05T04:06:01.642Z,23.45
2023-01-05T04:08:30.613Z,31.23
2023-01-05T04:11:11.145Z,32.60
2023-01-05T04:16:05.763Z,31.25
2023-01-05T04:18:32.584Z,30.27
2023-01-05T04:20:59.214Z,33.63
2023-01-05T04:23:25.826Z,34.35
2023-01-05T04:25:54.763Z,28.77
2023-01-05T04:28:24.165Z,41.58
2023-01-05T04:30:55.146Z,40.03
2023-01-05T04:33:24.378Z,34.67
2023-01-05T04:35:51.930Z,28.92
2023-01-05T04:38:19.350Z,29.75
2023-01-05T04:40:50.881Z,32.00
2023-01-05T04:43:19.963Z,30.88
2023-01-05T04:45:49.381Z,40.90
2023-01-05T04:48:17.414Z,32.65
2023-01-05T04:50:44.709Z,38.15
2023-01-05T04:53:11.700Z,32.63
2023-01-05T04:55:40.757Z,30.42
2023-01-05T04:58:11.748Z,34.83
2023-01-05T05:00:40.074Z,35.47
2023-01-05T05:03:07.859Z,31.15
2023-01-05T05:05:35.128Z,35.90
2023-01-05T05:08:02.693Z,34.33
2023-01-05T05:10:29.939Z,31.75
2023-01-05T05:12:56.542Z,36.20
2023-01-05T05:15:23.444Z,33.60
2023-01-05T05:17:50.259Z,29.23
2023-01-05T05:20:17.870Z,28.83
2023-01-05T05:22:44.620Z,31.05
2023-01-05T05:25:16.329Z,28.73
2023-01-05T05:27:46.519Z,29.45
2023-01-05T05:30:13.717Z,28.17
2023-01-05T05:32:44.188Z,38.30
2023-01-05T05:35:12.297Z,25.70
2023-01-05T05:37:39.143Z,29.90
2023-01-05T05:40:06.291Z,29.25
2023-01-05T05:42:32.873Z,34.13
2023-01-05T05:44:59.442Z,22.85
2023-01-05T05:47:26.059Z,28.80
2023-01-05T05:49:52.718Z,28.40
2023-01-05T05:52:19.302Z,19.38
2023-01-05T05:54:45.975Z,26.00
2023-01-05T05:57:12.589Z,29.17
2023-01-05T05:59:39.175Z,27.92
2023-01-05T06:02:05.811Z,33.53
2023-01-05T06:04:32.390Z,33.33
2023-01-05T06:06:58.918Z,29.63
2023-01-05T06:09:25.500Z,39.33
2023-01-05T06:11:52.296Z,34.60
2023-01-05T06:14:18.996Z,30.05
2023-01-05T06:16:45.807Z,41.55
2023-01-05T06:19:12.612Z,32.35
2023-01-05T06:21:39.296Z,33.70
2023-01-05T06:24:06.204Z,30.67
2023-01-05T06:26:32.820Z,33.72
2023-01-05T06:28:59.365Z,34.55
2023-01-05T06:31:25.991Z,39.88
2023-01-05T06:33:52.766Z,41.58
2023-01-05T06:36:19.432Z,45.42
2023-01-05T06:38:46.062Z,34.22
2023-01-05T06:41:12.766Z,35.97
2023-01-05T06:43:39.336Z,42.88
2023-01-05T06:46:06.014Z,35.53
2023-01-05T06:48:32.574Z,38.78
2023-01-05T06:50:59.209Z,39.13
2023-01-05T06:53:25.937Z,34.55
2023-01-05T06:55:52.505Z,27.42
2023-01-05T06:58:19.145Z,30.17
2023-01-05T07:00:45.766Z,37.08
2023-01-05T07:03:13.905Z,32.15
2023-01-05T07:05:41.521Z,31.77
2023-01-05T07:08:08.261Z,31.58
2023-01-05T07:10:34.862Z,37.67
2023-01-05T07:13:01.503Z,36.40
2023-01-05T07:15:28.221Z,38.63
2023-01-05T07:17:54.764Z,35.50
2023-01-05T07:20:21.354Z,39.40
2023-01-05T07:22:47.973Z,35.15
2023-01-05T07:25:14.669Z,35.78
2023-01-05T07:27:41.297Z,39.00
2023-01-05T07:30:08.611Z,29.92
2023-01-05T07:32:39.050Z,35.97
2023-01-05T07:35:07.121Z,37.92
2023-01-05T07:37:33.710Z,44.83
2023-01-05T07:40:00.354Z,33.22
2023-01-05T07:42:27.019Z,35.08
2023-01-05T07:44:53.608Z,44.70
2023-01-05T07:47:20.290Z,25.05
2023-01-05T07:49:46.933Z,36.10
2023-01-05T07:52:13.520Z,34.22
2023-01-05T07:54:40.144Z,32.75
2023-01-05T07:57:06.864Z,29.08
2023-01-05T07:59:33.393Z,39.65
2023-01-05T08:02:00.103Z,26.33
2023-01-05T08:04:26.932Z,36.90
2023-01-05T08:06:53.655Z,31.80
2023-01-05T08:09:38.950Z,39.65
2023-01-05T08:12:05.870Z,35.75
2023-01-05T08:14:33.366Z,43.08
2023-01-05T08:17:00.209Z,33.55
2023-01-05T08:19:26.855Z,29.52
2023-01-05T08:21:53.528Z,39.28
2023-01-05T08:24:20.027Z,36.13
2023-01-05T08:26:50.632Z,29.73
2023-01-05T08:29:17.369Z,32.90
2023-01-05T08:31:43.972Z,35.47
2023-01-05T08:34:10.597Z,29.92
2023-01-05T08:36:37.383Z,39.67
2023-01-05T08:39:04.226Z,26.42
2023-01-05T08:41:36.493Z,33.42
2023-01-05T08:44:10.718Z,32.15
2023-01-05T08:46:37.616Z,33.55
2023-01-05T08:49:06.486Z,33.92
2023-01-05T08:51:33.998Z,34.50
2023-01-05T08:54:01.100Z,32.72
2023-01-05T08:56:31.717Z,32.83
2023-01-05T08:59:01.386Z,30.70
2023-01-05T09:01:28.306Z,34.25
2023-01-05T09:03:55.096Z,31.55
2023-01-05T09:06:21.727Z,32.33
2023-01-05T09:08:48.952Z,21.83
2023-01-05T09:11:18.483Z,42.13
2023-01-05T09:13:54.110Z,27.67
2023-01-05T09:16:56.862Z,31.98
2023-01-05T09:19:11.933Z,34.00
2023-01-05T09:21:41.614Z,35.40
2023-01-05T09:24:12.876Z,31.40
2023-01-05T09:26:40.914Z,35.55
2023-01-05T09:29:07.616Z,39.25
2023-01-05T09:31:35.401Z,33.03
2023-01-05T09:34:02.066Z,36.08
2023-01-05T09:36:28.842Z,40.72
2023-01-05T09:38:57.077Z,46.33
2023-01-05T09:41:29.217Z,38.25
2023-01-05T09:43:59.260Z,38.00
2023-01-05T09:46:39.210Z,37.20
2023-01-05T09:49:12.664Z,31.98
2023-01-05T09:51:40.458Z,31.38
2023-01-05T09:54:14.866Z,37.50
2023-01-05T09:59:46.577Z,37.83
2023-01-05T10:02:24.027Z,32.10
2023-01-05T10:04:55.573Z,35.75
2023-01-05T10:07:43.487Z,28.13
2023-01-05T10:11:07.537Z,36.38
2023-01-05T10:13:37.128Z,31.85
2023-01-05T10:18:31.609Z,34.25
2023-01-05T10:21:20.506Z,40.30
2023-01-05T10:23:58.994Z,34.80
2023-01-05T10:27:06.463Z,31.83
2023-01-05T10:29:32.668Z,36.63
2023-01-05T10:32:18.019Z,38.17
2023-01-05T10:35:02.564Z,33.30
2023-01-05T10:37:47.718Z,35.13
2023-01-05T10:40:46.767Z,29.73
2023-01-05T10:43:47.581Z,36.33
2023-01-05T10:46:39.957Z,36.55
2023-01-05T10:49:06.326Z,29.85
2023-01-05T10:51:35.356Z,35.75
2023-01-05T10:54:03.561Z,38.70
2023-01-05T10:56:31.668Z,38.88
2023-01-05T10:59:12.449Z,38.35
2023-01-05T11:01:45.869Z,35.13
2023-01-05T11:04:34.481Z,38.60
2023-01-05T11:09:30.055Z,36.40
2023-01-05T11:12:02.377Z,37.78
2023-01-05T11:14:33.454Z,36.45
2023-01-05T11:17:06.832Z,36.30
2023-01-05T11:19:41.970Z,42.95
2023-01-05T11:22:40.093Z,38.33
2023-01-05T11:25:32.511Z,35.70
2023-01-05T11:28:06.828Z,40.25
2023-01-05T11:30:33.982Z,32.50
2023-01-05T11:33:01.878Z,41.58
2023-01-05T11:35:36.842Z,38.67
2023-01-05T11:38:04.441Z,37.30
2023-01-05T11:40:34.651Z,42.00
2023-01-05T11:43:10.472Z,40.40
2023-01-05T11:45:49.726Z,32.10
2023-01-05T11:48:20.592Z,27.45
2023-01-05T11:50:50.345Z,48.08
2023-01-05T11:53:37.823Z,34.20
2023-01-05T11:56:23.479Z,30.02
2023-01-05T11:58:55.170Z,31.63
2023-01-05T12:01:31.248Z,35.58
2023-01-05T12:04:14.616Z,30.25
2023-01-05T12:06:59.965Z,25.42
2023-01-05T12:09:35.144Z,32.17
2023-01-05T12:12:30.443Z,34.15
2023-01-05T12:15:34.770Z,36.78
2023-01-05T12:18:20.388Z,38.83
2023-01-05T12:20:56.351Z,41.97
2023-01-05T12:23:40.236Z,38.13
2023-01-05T12:26:29.400Z,41.00
2023-01-05T12:35:31.844Z,37.80
2023-01-05T12:38:22.905Z,43.13
2023-01-05T12:41:21.788Z,37.63
2023-01-05T12:43:54.482Z,36.42
2023-01-05T12:46:40.036Z,31.85
2023-01-05T12:49:14.928Z,37.20
2023-01-05T12:51:45.544Z,34.08
2023-01-05T12:54:22.097Z,33.20
2023-01-05T12:56:58.581Z,41.42
2023-01-05T12:59:35.158Z,37.38
2023-01-05T13:02:20.749Z,34.35
2023-01-05T13:05:15.495Z,41.47
2023-01-05T13:07:56.008Z,32.45
2023-01-05T13:10:45.970Z,38.42
2023-01-05T13:13:44.874Z,36.13
2023-01-05T13:16:40.836Z,29.95
2023-01-05T13:19:20.377Z,33.42
2023-01-05T13:24:34.066Z,36.05
2023-01-05T13:27:03.862Z,37.60
2023-01-05T13:29:37.407Z,41.22
2023-01-05T13:32:37.956Z,35.63
2023-01-05T13:35:22.695Z,36.03
2023-01-05T13:37:57.902Z,35.53
2023-01-05T13:40:57.114Z,37.75
2023-01-05T13:43:52.741Z,46.38
2023-01-05T13:46:50.406Z,30.30
2023-01-05T13:49:52.461Z,21.33
2023-01-05T13:52:42.314Z,38.85
2023-01-05T13:55:25.181Z,31.38
2023-01-05T13:57:55.528Z,33.88
2023-01-05T14:00:39.278Z,38.17
2023-01-05T14:03:07.975Z,33.17
2023-01-05T14:05:48.662Z,36.17
2023-01-05T14:08:29.574Z,32.72
2023-01-05T14:11:16.333Z,37.28
2023-01-05T14:13:50.942Z,29.08
2023-01-05T14:16:35.970Z,32.65
2023-01-05T14:19:23.051Z,33.15
2023-01-05T14:21:49.595Z,33.60
2023-01-05T14:24:48.053Z,31.90
2023-01-05T14:27:23.082Z,29.13
2023-01-05T14:32:36.954Z,29.40
2023-01-05T14:35:30.861Z,36.33
2023-01-05T14:38:01.938Z,36.15
2023-01-05T14:40:37.206Z,30.38
2023-01-05T14:43:20.390Z,30.65
2023-01-05T14:46:01.641Z,32.50
2023-01-05T14:48:35.666Z,36.55
2023-01-05T14:51:17.714Z,36.33
2023-01-05T14:53:49.111Z,28.48
2023-01-05T14:56:19.882Z,27.20
2023-01-05T14:58:49.256Z,30.35
2023-01-05T15:01:16.191Z,27.83
2023-01-05T15:04:06.997Z,36.95
2023-01-05T15:06:55.063Z,30.08
2023-01-05T15:09:24.426Z,32.90
2023-01-05T15:14:54.870Z,32.55
2023-01-05T15:17:52.314Z,31.10
2023-01-05T15:20:53.141Z,34.42
2023-01-05T15:24:13.943Z,29.42
2023-01-05T15:27:05.670Z,33.17
2023-01-05T15:30:09.839Z,31.40
2023-01-05T15:32:42.380Z,27.77
2023-01-05T15:35:29.047Z,21.40
2023-01-05T15:37:55.691Z,27.95
2023-01-05T15:40:22.393Z,25.58
2023-01-05T15:42:52.761Z,20.45
2023-01-05T15:45:35.080Z,31.42
2023-01-05T15:48:09.277Z,29.15
2023-01-05T15:50:58.348Z,33.15
2023-01-05T15:53:38.238Z,33.70
2023-01-05T15:56:07.263Z,27.33
2023-01-05T15:58:44.229Z,35.55
2023-01-05T16:01:13.503Z,35.42
2023-01-05T16:03:42.961Z,36.35
2023-01-05T16:06:20.148Z,30.88
2023-01-05T16:08:50.527Z,28.10
2023-01-05T16:11:31.537Z,31.90
2023-01-05T16:14:02.968Z,28.45
2023-01-05T16:16:53.563Z,33.80
2023-01-05T16:20:00.562Z,30.35
2023-01-05T16:22:39.544Z,37.05
2023-01-05T16:25:28.090Z,35.10
2023-01-05T16:28:03.261Z,41.17
2023-01-05T16:30:38.839Z,35.28
2023-01-05T16:33:15.130Z,33.15
2023-01-05T16:35:44.448Z,35.25
2023-01-05T16:38:11.009Z,35.72
2023-01-05T16:40:41.372Z,36.35
2023-01-05T16:43:21.969Z,26.17
2023-01-05T16:45:51.492Z,33.88
2023-01-05T16:48:36.880Z,38.92
2023-01-05T16:51:06.189Z,35.53
2023-01-05T16:53:34.831Z,29.58
2023-01-05T16:56:02.094Z,29.03
2023-01-05T16:58:31.969Z,37.42
2023-01-05T17:01:13.830Z,40.80
2023-01-05T17:03:42.248Z,38.65
2023-01-05T17:06:22.580Z,39.30
2023-01-05T17:08:49.704Z,32.20
2023-01-05T17:11:16.449Z,28.95
2023-01-05T17:13:50.249Z,31.42
2023-01-05T17:16:17.102Z,33.55
2023-01-05T17:18:44.868Z,32.28
2023-01-05T17:21:16.493Z,36.58
2023-01-05T17:23:47.324Z,42.45
2023-01-05T17:26:22.957Z,33.17
2023-01-05T17:28:49.721Z,44.25
2023-01-05T17:31:16.310Z,29.67
2023-01-05T17:33:42.934Z,29.25
2023-01-05T17:36:09.732Z,34.15
2023-01-05T17:38:36.445Z,39.70
2023-01-05T17:41:03.292Z,35.30
2023-01-05T17:43:29.889Z,54.78
2023-01-05T17:45:56.968Z,46.85
2023-01-05T17:48:23.638Z,39.17
2023-01-05T17:50:52.867Z,34.83
2023-01-05T17:53:21.014Z,35.33
2023-01-05T17:55:47.640Z,39.75
2023-01-05T17:58:15.598Z,31.95
2023-01-05T18:03:21.807Z,38.25
2023-01-05T18:05:51.685Z,32.17
2023-01-05T18:08:21.861Z,29.90
2023-01-05T18:10:48.533Z,33.78
2023-01-05T18:13:16.741Z,32.20
2023-01-05T18:15:49.658Z,34.65
2023-01-05T18:18:17.950Z,35.05
2023-01-05T18:20:44.541Z,39.92
2023-01-05T18:23:11.324Z,35.88
2023-01-05T18:25:39.464Z,39.20
2023-01-05T18:28:06.287Z,36.97
2023-01-05T18:30:33.230Z,46.60
2023-01-05T18:32:59.799Z,51.80
2023-01-05T18:35:26.559Z,38.55
2023-01-05T18:40:21.724Z,42.05
2023-01-05T18:42:48.382Z,33.75
2023-01-05T18:45:26.186Z,45.35
2023-01-05T18:47:58.800Z,39.95
2023-01-05T18:50:25.955Z,40.72
2023-01-05T18:52:53.000Z,41.03
2023-01-05T18:55:19.560Z,40.35
2023-01-05T18:57:46.212Z,36.83
2023-01-05T19:00:13.387Z,36.75
2023-01-05T19:02:40.252Z,43.85
2023-01-05T19:05:07.170Z,39.03
2023-01-05T19:07:38.078Z,57.83
2023-01-05T19:10:05.049Z,44.50
2023-01-05T19:12:31.625Z,47.40
2023-01-05T19:14:58.249Z,40.35
2023-01-05T19:17:27.757Z,42.03
2023-01-05T19:19:55.015Z,41.90
2023-01-05T19:22:24.387Z,40.03
2023-01-05T19:24:50.966Z,48.63
2023-01-05T19:27:17.679Z,46.50
2023-01-05T19:29:44.812Z,45.72
2023-01-05T19:32:11.613Z,59.53
2023-01-05T19:34:38.446Z,50.15
2023-01-05T19:37:06.338Z,61.60
2023-01-05T19:39:32.927Z,47.65
2023-01-05T19:42:00.795Z,44.40
2023-01-05T19:44:27.444Z,47.03
2023-01-05T19:46:54.129Z,40.53
2023-01-05T19:49:25.787Z,45.38
2023-01-05T19:51:53.429Z,46.10
2023-01-05T19:54:22.438Z,42.60
2023-01-05T19:56:49.213Z,45.47
2023-01-05T19:59:33.091Z,40.13
2023-01-05T20:02:05.185Z,47.92
2023-01-05T20:04:32.872Z,42.92
2023-01-05T20:07:01.847Z,39.63
2023-01-05T20:09:29.731Z,39.00
2023-01-05T20:12:05.773Z,37.45
2023-01-05T20:14:39.991Z,50.65
2023-01-05T20:17:08.782Z,35.97
2023-01-05T20:19:36.887Z,46.38
2023-01-05T20:22:05.890Z,49.70
2023-01-05T20:24:36.112Z,43.42
2023-01-05T20:27:06.635Z,48.40
2023-01-05T20:29:34.915Z,44.72
2023-01-05T20:32:12.040Z,53.42
2023-01-05T20:34:39.844Z,51.35
2023-01-05T20:37:08.121Z,55.58
2023-01-05T20:39:35.960Z,49.67
2023-01-05T20:42:04.914Z,56.90
2023-01-05T20:44:35.428Z,46.53
2023-01-05T20:47:03.237Z,48.28
2023-01-05T20:49:30.458Z,52.00
2023-01-05T20:51:57.410Z,44.47
2023-01-05T20:54:24.829Z,54.15
2023-01-05T20:56:51.451Z,49.45
2023-01-05T20:59:24.703Z,74.65
2023-01-05T21:01:51.934Z,49.00
2023-01-05T21:04:19.704Z,43.28
2023-01-05T21:06:47.331Z,55.72
2023-01-05T21:09:14.327Z,71.90
2023-01-05T21:11:41.772Z,58.67
2023-01-05T21:14:09.324Z,60.75
2023-01-05T21:16:43.008Z,58.17
2023-01-05T21:19:17.560Z,51.78
2023-01-05T21:21:45.545Z,45.58
2023-01-05T21:24:13.450Z,50.92
2023-01-05T21:26:40.406Z,49.78
2023-01-05T21:29:08.999Z,43.42
2023-01-05T21:31:37.128Z,42.55
2023-01-05T21:34:04.185Z,44.17
2023-01-05T21:36:32.713Z,43.63
2023-01-05T21:39:07.242Z,42.72
2023-01-05T21:41:54.799Z,45.65
2023-01-05T21:44:22.438Z,42.25
2023-01-05T21:46:49.912Z,44.42
2023-01-05T21:49:17.390Z,42.45
2023-01-05T21:52:02.699Z,35.83
2023-01-05T21:54:47.956Z,43.10
2023-01-05T21:57:14.682Z,43.22
2023-01-05T21:59:42.384Z,43.35
2023-01-05T22:02:09.823Z,41.95
2023-01-05T22:04:36.429Z,47.83
2023-01-05T22:07:05.231Z,50.85
2023-01-05T22:09:31.898Z,50.10
2023-01-05T22:11:58.557Z,46.97
2023-01-05T22:14:25.347Z,40.17
2023-01-05T22:16:52.019Z,37.65
2023-01-05T22:19:18.631Z,40.38
2023-01-05T22:21:45.275Z,36.28
2023-01-05T22:24:12.953Z,39.83
2023-01-05T22:26:39.810Z,43.10
2023-01-05T22:29:06.454Z,36.97
2023-01-05T22:31:35.516Z,37.55
2023-01-05T22:34:05.323Z,39.13
2023-01-05T22:36:32.267Z,34.20
2023-01-05T22:38:59.115Z,41.50
2023-01-05T22:41:29.719Z,24.90
2023-01-05T22:43:57.244Z,26.95
2023-01-05T22:46:26.903Z,27.48
2023-01-05T22:51:24.309Z,26.15
2023-01-05T22:53:51.208Z,25.02
2023-01-05T22:56:19.589Z,26.63
2023-01-05T22:58:46.659Z,27.95
2023-01-05T23:01:24.754Z,25.00
2023-01-05T23:03:52.844Z,26.60
2023-01-05T23:06:20.490Z,27.30
2023-01-05T23:08:48.548Z,21.73
2023-01-05T23:11:21.671Z,27.15
2023-01-05T23:13:49.508Z,23.58
2023-01-05T23:16:16.871Z,31.25
2023-01-05T23:18:43.918Z,22.80
2023-01-05T23:21:12.725Z,20.05
2023-01-05T23:23:39.955Z,26.30
2023-01-05T23:26:08.850Z,22.83
2023-01-05T23:28:35.883Z,23.17
2023-01-05T23:31:03.070Z,23.25
2023-01-05T23:33:32.766Z,23.08
2023-01-05T23:38:27.469Z,22.75
2023-01-05T23:40:55.771Z,27.35
2023-01-05T23:43:26.240Z,23.88
2023-01-05T23:46:00.212Z,21.08
2023-01-05T23:48:27.396Z,20.65
2023-01-05T23:50:55.377Z,24.25
2023-01-05T23:53:22.693Z,25.50
2023-01-05T23:55:49.263Z,23.90
2023-01-05T23:58:15.942Z,26.38
